map of ATZ home
Great Circle Mapper logo
ATZ - Airport
Location
City:  Assiut, Egypt
ICAO / IATA:HEAT / ATZ

Details
Type:Airport (Aerodrome, Airfield)
Use:Public/Civil, International (customs port of entry)
Latitude:2702'47"N (27.046508)
Longitude:3100'43"E (31.011983)
Datum:WGS 1984
Elevation:772 ft (235 m)
Runways:1
Longest:9905 × 148 ft (3019 × 45 m), paved

Time
Time Zone:UTC+2
Local Time:

Weather
METAR:HEAT 311800Z 32005KT CAVOK 33/12 Q1008 NOSIG
TAF:HEAT 310600Z 3106/0112 34010KT CAVOK

Related Locations
Nearby:
Farthest:NTAV: 12199 mi / 19632 km
Raivavae, Tubuai Islands, Austral Islands, PF

Find:

   beyond  
but within

Other Information
Maps:
NOTAMs:
Links:
Sources:

  
flag of Egypt   

Sectional Chart

Flight Planning
at skyvector.com

Satellite Image

Google Maps Satellite View

 

Copyright © 2004-2014 Karl L. Swartz. All rights reserved.
The Great Circle Mapper name and logo are trademarks of the Great Circle Mapper.
All other trademarks mentioned herein belong to their respective owners.
Please see credits for attibutions and further copyright information.

  Follow gcmap on Facebook Follow gcmap on Twitter

hCard Microformat

Geo Microformat